Terminal Aerodrome Forecast
Issued by NWS

Home | Current Version | Previous Version | Text Only | Print | Product List | Glossary On
Versions: 1 2 3 4 5 6 7 8 9 10 11 12 13
000
FTUS43 KGLD 061724
TAFMCK
TAF
KMCK 061724Z 0618/0718 18013G20KT P6SM SCT250
     FM070500 18012KT P6SM SCT250 WS020/20040KT
     FM070800 16008KT P6SM SCT250 WS020/20045KT
     FM071000 12006KT P6SM SCT250
     FM071300 09006KT P6SM SCT250
     FM071600 10010KT P6SM VCSH SCT250=

USA.gov is the U.S. government's official web portal to all federal, state and local government web resources and services.